Terminal Aerodrome Forecast
Issued by NWS

Home | Current Version | Previous Version | Text Only | Print | Product List | Glossary On
Versions: 1 2 3 4 5 6 7 8 9 10 11 12 13 14 15 16 17 18 19 20 21 22 23 24 25 26
756
FTUS46 KSGX 210520
TAFSAN
TAF
KSAN 210520Z 2106/2212 00000KT P6SM SCT045
     FM212100 30008KT P6SM SCT250
     FM220100 VRB03KT P6SM BKN200=

USA.gov is the U.S. government's official web portal to all federal, state and local government web resources and services.